sensor_id;sensor_type;location;lat;lon;timestamp;temperature;humidity
19847;DHT22;10084;50.518;8.588;2022-10-28T00:01:16;15.80;83.70
19847;DHT22;10084;50.518;8.588;2022-10-28T00:03:46;15.70;83.90
19847;DHT22;10084;50.518;8.588;2022-10-28T00:06:18;15.70;84.10
19847;DHT22;10084;50.518;8.588;2022-10-28T00:08:45;15.70;84.40
19847;DHT22;10084;50.518;8.588;2022-10-28T00:11:14;15.70;84.60
19847;DHT22;10084;50.518;8.588;2022-10-28T00:13:41;15.70;84.70
19847;DHT22;10084;50.518;8.588;2022-10-28T00:16:28;15.70;84.80
19847;DHT22;10084;50.518;8.588;2022-10-28T00:18:54;15.60;84.90
19847;DHT22;10084;50.518;8.588;2022-10-28T00:21:23;15.60;85.10
19847;DHT22;10084;50.518;8.588;2022-10-28T00:23:49;15.60;85.20
19847;DHT22;10084;50.518;8.588;2022-10-28T00:26:17;15.60;85.40
19847;DHT22;10084;50.518;8.588;2022-10-28T00:28:55;15.60;85.50
19847;DHT22;10084;50.518;8.588;2022-10-28T00:31:22;15.60;85.50
19847;DHT22;10084;50.518;8.588;2022-10-28T00:33:49;15.60;85.50
19847;DHT22;10084;50.518;8.588;2022-10-28T00:36:23;15.60;85.60
19847;DHT22;10084;50.518;8.588;2022-10-28T00:38:51;15.60;85.70
19847;DHT22;10084;50.518;8.588;2022-10-28T00:41:21;15.60;85.70
19847;DHT22;10084;50.518;8.588;2022-10-28T00:43:50;15.60;86.00
19847;DHT22;10084;50.518;8.588;2022-10-28T00:49:01;15.60;86.20
19847;DHT22;10084;50.518;8.588;2022-10-28T00:51:27;15.60;86.20
19847;DHT22;10084;50.518;8.588;2022-10-28T00:53:55;15.50;86.10
19847;DHT22;10084;50.518;8.588;2022-10-28T00:56:23;15.50;86.30
19847;DHT22;10084;50.518;8.588;2022-10-28T00:58:53;15.50;86.50
19847;DHT22;10084;50.518;8.588;2022-10-28T01:01:20;15.50;86.50
19847;DHT22;10084;50.518;8.588;2022-10-28T01:03:46;15.50;86.70
19847;DHT22;10084;50.518;8.588;2022-10-28T01:06:12;15.50;86.80
19847;DHT22;10084;50.518;8.588;2022-10-28T01:08:38;15.40;86.80
19847;DHT22;10084;50.518;8.588;2022-10-28T01:16:33;15.20;87.50
19847;DHT22;10084;50.518;8.588;2022-10-28T01:22:23;15.20;88.30
19847;DHT22;10084;50.518;8.588;2022-10-28T01:25:16;15.20;88.40
19847;DHT22;10084;50.518;8.588;2022-10-28T01:33:30;15.40;88.40
19847;DHT22;10084;50.518;8.588;2022-10-28T01:36:13;15.40;88.30
19847;DHT22;10084;50.518;8.588;2022-10-28T01:39:00;15.40;88.40
19847;DHT22;10084;50.518;8.588;2022-10-28T01:41:30;15.40;88.40
19847;DHT22;10084;50.518;8.588;2022-10-28T01:44:06;15.50;88.50
19847;DHT22;10084;50.518;8.588;2022-10-28T01:46:40;15.50;88.60
19847;DHT22;10084;50.518;8.588;2022-10-28T01:51:38;15.50;89.00
19847;DHT22;10084;50.518;8.588;2022-10-28T01:54:06;15.50;89.10
19847;DHT22;10084;50.518;8.588;2022-10-28T01:56:37;15.50;89.10
19847;DHT22;10084;50.518;8.588;2022-10-28T01:59:08;15.50;89.30
19847;DHT22;10084;50.518;8.588;2022-10-28T02:01:35;15.50;89.60
19847;DHT22;10084;50.518;8.588;2022-10-28T02:04:01;15.50;89.60
19847;DHT22;10084;50.518;8.588;2022-10-28T02:06:29;15.50;89.40
19847;DHT22;10084;50.518;8.588;2022-10-28T02:14:29;15.60;89.30
19847;DHT22;10084;50.518;8.588;2022-10-28T02:22:31;15.70;90.00
19847;DHT22;10084;50.518;8.588;2022-10-28T02:25:16;15.70;90.10
19847;DHT22;10084;50.518;8.588;2022-10-28T02:28:08;15.80;90.10
19847;DHT22;10084;50.518;8.588;2022-10-28T02:30:49;15.80;89.80
19847;DHT22;10084;50.518;8.588;2022-10-28T02:33:19;15.80;89.30
19847;DHT22;10084;50.518;8.588;2022-10-28T02:36:10;15.80;89.40
19847;DHT22;10084;50.518;8.588;2022-10-28T02:38:41;15.80;89.70
19847;DHT22;10084;50.518;8.588;2022-10-28T02:41:19;15.80;89.80
19847;DHT22;10084;50.518;8.588;2022-10-28T02:43:49;15.80;89.80
19847;DHT22;10084;50.518;8.588;2022-10-28T02:46:18;15.80;89.90
19847;DHT22;10084;50.518;8.588;2022-10-28T02:49:06;15.80;90.00
19847;DHT22;10084;50.518;8.588;2022-10-28T02:51:45;15.90;90.10
19847;DHT22;10084;50.518;8.588;2022-10-28T02:54:21;15.90;90.00
19847;DHT22;10084;50.518;8.588;2022-10-28T02:57:12;15.80;90.00
19847;DHT22;10084;50.518;8.588;2022-10-28T02:59:39;15.90;90.00
19847;DHT22;10084;50.518;8.588;2022-10-28T03:02:05;15.80;89.80
19847;DHT22;10084;50.518;8.588;2022-10-28T03:04:30;15.80;89.90
19847;DHT22;10084;50.518;8.588;2022-10-28T03:06:56;15.80;90.00
19847;DHT22;10084;50.518;8.588;2022-10-28T03:09:22;15.80;90.10
19847;DHT22;10084;50.518;8.588;2022-10-28T03:11:47;15.80;90.10
19847;DHT22;10084;50.518;8.588;2022-10-28T03:14:13;15.70;90.20
19847;DHT22;10084;50.518;8.588;2022-10-28T03:16:38;15.70;90.30
19847;DHT22;10084;50.518;8.588;2022-10-28T03:19:05;15.80;90.40
19847;DHT22;10084;50.518;8.588;2022-10-28T03:21:31;15.70;90.50
19847;DHT22;10084;50.518;8.588;2022-10-28T03:23:56;15.80;90.50
19847;DHT22;10084;50.518;8.588;2022-10-28T03:26:22;15.80;90.60
19847;DHT22;10084;50.518;8.588;2022-10-28T03:28:47;15.80;90.50
19847;DHT22;10084;50.518;8.588;2022-10-28T03:31:13;15.80;90.50
19847;DHT22;10084;50.518;8.588;2022-10-28T03:33:40;15.80;90.50
19847;DHT22;10084;50.518;8.588;2022-10-28T03:36:06;15.80;90.50
19847;DHT22;10084;50.518;8.588;2022-10-28T03:38:31;15.80;90.50
19847;DHT22;10084;50.518;8.588;2022-10-28T03:40:57;15.80;90.40
19847;DHT22;10084;50.518;8.588;2022-10-28T03:43:23;15.80;90.50
19847;DHT22;10084;50.518;8.588;2022-10-28T03:45:48;15.70;90.70
19847;DHT22;10084;50.518;8.588;2022-10-28T03:48:14;15.70;90.90
19847;DHT22;10084;50.518;8.588;2022-10-28T03:50:40;15.70;91.10
19847;DHT22;10084;50.518;8.588;2022-10-28T03:53:05;15.70;91.30
19847;DHT22;10084;50.518;8.588;2022-10-28T03:55:31;15.70;91.40
19847;DHT22;10084;50.518;8.588;2022-10-28T03:57:59;15.80;91.50
19847;DHT22;10084;50.518;8.588;2022-10-28T04:00:25;15.70;91.50
19847;DHT22;10084;50.518;8.588;2022-10-28T04:02:52;15.80;91.70
19847;DHT22;10084;50.518;8.588;2022-10-28T04:05:19;15.80;91.70
19847;DHT22;10084;50.518;8.588;2022-10-28T04:07:45;15.80;91.70
19847;DHT22;10084;50.518;8.588;2022-10-28T04:10:11;15.80;91.80
19847;DHT22;10084;50.518;8.588;2022-10-28T04:12:37;15.80;91.90
19847;DHT22;10084;50.518;8.588;2022-10-28T04:15:03;15.80;91.90
19847;DHT22;10084;50.518;8.588;2022-10-28T04:17:29;15.80;91.90
19847;DHT22;10084;50.518;8.588;2022-10-28T04:19:54;15.80;91.90
19847;DHT22;10084;50.518;8.588;2022-10-28T04:22:20;15.80;91.90
19847;DHT22;10084;50.518;8.588;2022-10-28T04:24:46;15.80;91.90
19847;DHT22;10084;50.518;8.588;2022-10-28T04:27:12;15.80;91.90
19847;DHT22;10084;50.518;8.588;2022-10-28T04:29:37;15.70;92.20
19847;DHT22;10084;50.518;8.588;2022-10-28T04:32:03;15.70;92.00
19847;DHT22;10084;50.518;8.588;2022-10-28T04:34:29;15.70;92.10
19847;DHT22;10084;50.518;8.588;2022-10-28T04:36:54;15.70;92.20
19847;DHT22;10084;50.518;8.588;2022-10-28T04:39:20;15.70;92.30
19847;DHT22;10084;50.518;8.588;2022-10-28T04:41:46;15.70;92.30
19847;DHT22;10084;50.518;8.588;2022-10-28T04:44:11;15.60;92.20
19847;DHT22;10084;50.518;8.588;2022-10-28T04:46:37;15.70;92.20
19847;DHT22;10084;50.518;8.588;2022-10-28T04:49:02;15.60;92.00
19847;DHT22;10084;50.518;8.588;2022-10-28T04:51:28;15.70;91.90
19847;DHT22;10084;50.518;8.588;2022-10-28T04:53:54;15.60;91.70
19847;DHT22;10084;50.518;8.588;2022-10-28T04:56:19;15.60;91.70
19847;DHT22;10084;50.518;8.588;2022-10-28T04:58:46;15.60;91.70
19847;DHT22;10084;50.518;8.588;2022-10-28T05:01:12;15.60;91.80
19847;DHT22;10084;50.518;8.588;2022-10-28T05:03:38;15.60;91.80
19847;DHT22;10084;50.518;8.588;2022-10-28T05:06:04;15.60;91.70
19847;DHT22;10084;50.518;8.588;2022-10-28T05:08:30;15.60;91.70
19847;DHT22;10084;50.518;8.588;2022-10-28T05:10:55;15.50;91.60
19847;DHT22;10084;50.518;8.588;2022-10-28T05:13:21;15.50;91.60
19847;DHT22;10084;50.518;8.588;2022-10-28T05:15:47;15.50;91.50
19847;DHT22;10084;50.518;8.588;2022-10-28T05:18:13;15.40;91.60
19847;DHT22;10084;50.518;8.588;2022-10-28T05:20:39;15.40;91.80
19847;DHT22;10084;50.518;8.588;2022-10-28T05:23:05;15.30;92.00
19847;DHT22;10084;50.518;8.588;2022-10-28T05:25:31;15.30;92.10
19847;DHT22;10084;50.518;8.588;2022-10-28T05:27:59;15.20;92.20
19847;DHT22;10084;50.518;8.588;2022-10-28T05:30:26;15.20;92.40
19847;DHT22;10084;50.518;8.588;2022-10-28T05:32:58;15.20;92.40
19847;DHT22;10084;50.518;8.588;2022-10-28T05:35:25;15.10;92.50
19847;DHT22;10084;50.518;8.588;2022-10-28T05:37:50;15.10;92.60
19847;DHT22;10084;50.518;8.588;2022-10-28T05:40:16;15.10;92.70
19847;DHT22;10084;50.518;8.588;2022-10-28T05:42:42;15.00;92.80
19847;DHT22;10084;50.518;8.588;2022-10-28T05:45:09;15.00;92.90
19847;DHT22;10084;50.518;8.588;2022-10-28T05:47:35;15.00;93.00
19847;DHT22;10084;50.518;8.588;2022-10-28T05:50:01;14.90;93.10
19847;DHT22;10084;50.518;8.588;2022-10-28T05:52:26;14.90;93.10
19847;DHT22;10084;50.518;8.588;2022-10-28T05:54:52;14.90;93.20
19847;DHT22;10084;50.518;8.588;2022-10-28T05:57:18;14.80;93.20
19847;DHT22;10084;50.518;8.588;2022-10-28T05:59:43;14.80;93.30
19847;DHT22;10084;50.518;8.588;2022-10-28T06:02:13;14.80;93.30
19847;DHT22;10084;50.518;8.588;2022-10-28T06:04:40;14.80;93.30
19847;DHT22;10084;50.518;8.588;2022-10-28T06:07:05;14.70;93.30
19847;DHT22;10084;50.518;8.588;2022-10-28T06:09:31;14.70;93.40
19847;DHT22;10084;50.518;8.588;2022-10-28T06:11:57;14.70;93.40
19847;DHT22;10084;50.518;8.588;2022-10-28T06:14:26;14.70;93.30
19847;DHT22;10084;50.518;8.588;2022-10-28T06:16:51;14.60;93.30
19847;DHT22;10084;50.518;8.588;2022-10-28T06:19:17;14.60;93.40
19847;DHT22;10084;50.518;8.588;2022-10-28T06:21:43;14.60;93.40
19847;DHT22;10084;50.518;8.588;2022-10-28T06:24:08;14.60;93.30
19847;DHT22;10084;50.518;8.588;2022-10-28T06:26:34;14.60;93.30
19847;DHT22;10084;50.518;8.588;2022-10-28T06:29:00;14.60;93.20
19847;DHT22;10084;50.518;8.588;2022-10-28T06:31:26;14.60;93.10
19847;DHT22;10084;50.518;8.588;2022-10-28T06:33:51;14.50;93.20
19847;DHT22;10084;50.518;8.588;2022-10-28T06:36:17;14.50;93.20
19847;DHT22;10084;50.518;8.588;2022-10-28T06:38:43;14.50;93.20
19847;DHT22;10084;50.518;8.588;2022-10-28T06:41:09;14.60;93.30
19847;DHT22;10084;50.518;8.588;2022-10-28T06:43:34;14.70;93.30
19847;DHT22;10084;50.518;8.588;2022-10-28T06:46:01;14.70;93.20
19847;DHT22;10084;50.518;8.588;2022-10-28T06:48:27;14.80;93.20
19847;DHT22;10084;50.518;8.588;2022-10-28T06:50:56;14.80;93.10
19847;DHT22;10084;50.518;8.588;2022-10-28T06:53:23;14.90;93.00
19847;DHT22;10084;50.518;8.588;2022-10-28T06:55:53;15.00;92.90
19847;DHT22;10084;50.518;8.588;2022-10-28T06:58:19;15.00;92.80
19847;DHT22;10084;50.518;8.588;2022-10-28T07:00:44;15.10;92.70
19847;DHT22;10084;50.518;8.588;2022-10-28T07:03:10;15.20;92.50
19847;DHT22;10084;50.518;8.588;2022-10-28T07:05:36;15.20;92.40
19847;DHT22;10084;50.518;8.588;2022-10-28T07:08:02;15.20;92.30
19847;DHT22;10084;50.518;8.588;2022-10-28T07:10:28;15.30;92.30
19847;DHT22;10084;50.518;8.588;2022-10-28T07:12:53;15.30;92.40
19847;DHT22;10084;50.518;8.588;2022-10-28T07:15:19;15.40;92.30
19847;DHT22;10084;50.518;8.588;2022-10-28T07:17:53;15.50;92.30
19847;DHT22;10084;50.518;8.588;2022-10-28T07:20:20;15.60;92.10
19847;DHT22;10084;50.518;8.588;2022-10-28T07:22:45;15.60;92.00
19847;DHT22;10084;50.518;8.588;2022-10-28T07:25:11;15.70;92.00
19847;DHT22;10084;50.518;8.588;2022-10-28T07:27:37;15.80;91.90
19847;DHT22;10084;50.518;8.588;2022-10-28T07:30:03;15.80;91.80
19847;DHT22;10084;50.518;8.588;2022-10-28T07:32:32;15.90;91.80
19847;DHT22;10084;50.518;8.588;2022-10-28T07:34:57;15.90;91.80
19847;DHT22;10084;50.518;8.588;2022-10-28T07:37:23;16.00;91.60
19847;DHT22;10084;50.518;8.588;2022-10-28T07:39:49;16.00;91.50
19847;DHT22;10084;50.518;8.588;2022-10-28T07:42:14;16.00;91.50
19847;DHT22;10084;50.518;8.588;2022-10-28T07:44:40;16.00;91.50
19847;DHT22;10084;50.518;8.588;2022-10-28T07:47:06;15.90;91.50
19847;DHT22;10084;50.518;8.588;2022-10-28T07:49:32;15.90;91.50
19847;DHT22;10084;50.518;8.588;2022-10-28T07:51:57;15.90;91.60
19847;DHT22;10084;50.518;8.588;2022-10-28T07:54:23;16.00;91.70
19847;DHT22;10084;50.518;8.588;2022-10-28T07:56:49;16.00;91.80
19847;DHT22;10084;50.518;8.588;2022-10-28T07:59:14;16.00;91.80
19847;DHT22;10084;50.518;8.588;2022-10-28T08:01:40;16.10;91.80
19847;DHT22;10084;50.518;8.588;2022-10-28T08:04:06;16.10;91.90
19847;DHT22;10084;50.518;8.588;2022-10-28T08:06:33;16.20;91.90
19847;DHT22;10084;50.518;8.588;2022-10-28T08:08:59;16.20;92.00
19847;DHT22;10084;50.518;8.588;2022-10-28T08:11:25;16.30;92.00
19847;DHT22;10084;50.518;8.588;2022-10-28T08:13:51;16.40;92.00
19847;DHT22;10084;50.518;8.588;2022-10-28T08:16:17;16.50;91.90
19847;DHT22;10084;50.518;8.588;2022-10-28T08:18:43;16.60;91.80
19847;DHT22;10084;50.518;8.588;2022-10-28T08:21:10;16.70;91.80
19847;DHT22;10084;50.518;8.588;2022-10-28T08:23:36;16.70;91.50
19847;DHT22;10084;50.518;8.588;2022-10-28T08:26:03;16.70;91.30
19847;DHT22;10084;50.518;8.588;2022-10-28T08:28:29;16.60;91.40
19847;DHT22;10084;50.518;8.588;2022-10-28T08:31:02;16.70;91.80
19847;DHT22;10084;50.518;8.588;2022-10-28T08:33:32;17.20;95.30
19847;DHT22;10084;50.518;8.588;2022-10-28T08:35:58;18.50;92.70
19847;DHT22;10084;50.518;8.588;2022-10-28T08:38:23;20.00;88.90
19847;DHT22;10084;50.518;8.588;2022-10-28T08:41:14;20.70;82.90
19847;DHT22;10084;50.518;8.588;2022-10-28T08:44:04;20.60;81.00
19847;DHT22;10084;50.518;8.588;2022-10-28T08:49:38;19.80;82.20
19847;DHT22;10084;50.518;8.588;2022-10-28T08:55:16;19.20;84.30
19847;DHT22;10084;50.518;8.588;2022-10-28T08:57:48;19.00;85.40
19847;DHT22;10084;50.518;8.588;2022-10-28T09:03:01;18.80;87.50
19847;DHT22;10084;50.518;8.588;2022-10-28T09:05:28;18.80;88.00
19847;DHT22;10084;50.518;8.588;2022-10-28T09:07:55;18.80;87.90
19847;DHT22;10084;50.518;8.588;2022-10-28T09:10:48;18.80;87.70
19847;DHT22;10084;50.518;8.588;2022-10-28T09:13:29;18.70;87.70
19847;DHT22;10084;50.518;8.588;2022-10-28T09:18:52;18.70;88.10
19847;DHT22;10084;50.518;8.588;2022-10-28T09:24:14;18.70;88.80
19847;DHT22;10084;50.518;8.588;2022-10-28T09:26:46;18.70;89.20
19847;DHT22;10084;50.518;8.588;2022-10-28T09:29:43;18.80;89.30
19847;DHT22;10084;50.518;8.588;2022-10-28T09:32:44;18.90;89.30
19847;DHT22;10084;50.518;8.588;2022-10-28T09:35:15;19.00;89.00
19847;DHT22;10084;50.518;8.588;2022-10-28T09:37:47;19.20;89.00
19847;DHT22;10084;50.518;8.588;2022-10-28T09:40:21;19.20;88.80
19847;DHT22;10084;50.518;8.588;2022-10-28T09:45:25;19.40;88.60
19847;DHT22;10084;50.518;8.588;2022-10-28T09:47:57;19.50;88.60
19847;DHT22;10084;50.518;8.588;2022-10-28T09:50:28;19.50;88.30
19847;DHT22;10084;50.518;8.588;2022-10-28T09:53:14;19.60;88.00
19847;DHT22;10084;50.518;8.588;2022-10-28T09:55:43;19.60;87.10
19847;DHT22;10084;50.518;8.588;2022-10-28T09:58:10;19.60;87.20
19847;DHT22;10084;50.518;8.588;2022-10-28T10:00:36;19.70;87.10
19847;DHT22;10084;50.518;8.588;2022-10-28T10:03:02;19.70;86.70
19847;DHT22;10084;50.518;8.588;2022-10-28T10:05:28;19.70;86.40
19847;DHT22;10084;50.518;8.588;2022-10-28T10:08:03;19.60;86.60
19847;DHT22;10084;50.518;8.588;2022-10-28T10:10:39;19.70;86.80
19847;DHT22;10084;50.518;8.588;2022-10-28T10:13:10;19.80;87.00
19847;DHT22;10084;50.518;8.588;2022-10-28T10:15:50;20.00;87.70
19847;DHT22;10084;50.518;8.588;2022-10-28T10:18:22;20.70;87.70
19847;DHT22;10084;50.518;8.588;2022-10-28T10:20:54;21.40;84.70
19847;DHT22;10084;50.518;8.588;2022-10-28T10:23:31;21.80;82.60
19847;DHT22;10084;50.518;8.588;2022-10-28T10:26:02;22.10;81.70
19847;DHT22;10084;50.518;8.588;2022-10-28T10:28:29;22.20;81.10
19847;DHT22;10084;50.518;8.588;2022-10-28T10:30:59;22.30;80.80
19847;DHT22;10084;50.518;8.588;2022-10-28T10:33:39;22.50;80.90
19847;DHT22;10084;50.518;8.588;2022-10-28T10:38:34;22.70;80.40
19847;DHT22;10084;50.518;8.588;2022-10-28T10:41:00;22.70;80.10
19847;DHT22;10084;50.518;8.588;2022-10-28T10:45:59;22.80;79.90
19847;DHT22;10084;50.518;8.588;2022-10-28T10:48:25;22.90;80.10
19847;DHT22;10084;50.518;8.588;2022-10-28T10:50:52;23.00;80.40
19847;DHT22;10084;50.518;8.588;2022-10-28T10:53:27;23.20;80.20
19847;DHT22;10084;50.518;8.588;2022-10-28T10:55:59;23.20;79.70
19847;DHT22;10084;50.518;8.588;2022-10-28T10:58:29;23.30;79.50
19847;DHT22;10084;50.518;8.588;2022-10-28T11:00:58;23.40;79.40
19847;DHT22;10084;50.518;8.588;2022-10-28T11:03:37;23.50;79.00
19847;DHT22;10084;50.518;8.588;2022-10-28T11:06:06;23.60;78.50
19847;DHT22;10084;50.518;8.588;2022-10-28T11:08:41;23.60;78.30
19847;DHT22;10084;50.518;8.588;2022-10-28T11:13:38;23.80;77.90
19847;DHT22;10084;50.518;8.588;2022-10-28T11:16:14;23.80;77.30
19847;DHT22;10084;50.518;8.588;2022-10-28T11:18:43;23.70;76.90
19847;DHT22;10084;50.518;8.588;2022-10-28T11:27:11;23.30;76.50
19847;DHT22;10084;50.518;8.588;2022-10-28T11:29:40;23.10;76.80
19847;DHT22;10084;50.518;8.588;2022-10-28T11:32:20;23.10;76.90
19847;DHT22;10084;50.518;8.588;2022-10-28T11:35:05;23.10;76.90
19847;DHT22;10084;50.518;8.588;2022-10-28T11:40:28;23.00;76.20
19847;DHT22;10084;50.518;8.588;2022-10-28T11:43:32;23.00;77.10
19847;DHT22;10084;50.518;8.588;2022-10-28T11:51:56;24.90;79.50
19847;DHT22;10084;50.518;8.588;2022-10-28T11:54:42;25.60;74.00
19847;DHT22;10084;50.518;8.588;2022-10-28T11:57:17;26.20;72.60
19847;DHT22;10084;50.518;8.588;2022-10-28T12:08:55;26.00;69.90
19847;DHT22;10084;50.518;8.588;2022-10-28T12:17:14;25.50;70.20
19847;DHT22;10084;50.518;8.588;2022-10-28T12:22:53;25.70;70.20
19847;DHT22;10084;50.518;8.588;2022-10-28T12:25:24;25.70;69.50
19847;DHT22;10084;50.518;8.588;2022-10-28T12:27:57;25.60;69.30
19847;DHT22;10084;50.518;8.588;2022-10-28T12:30:30;25.50;69.50
19847;DHT22;10084;50.518;8.588;2022-10-28T12:33:13;25.60;69.50
19847;DHT22;10084;50.518;8.588;2022-10-28T12:35:47;25.70;69.40
19847;DHT22;10084;50.518;8.588;2022-10-28T12:38:24;25.90;69.90
19847;DHT22;10084;50.518;8.588;2022-10-28T12:41:01;26.10;68.70
19847;DHT22;10084;50.518;8.588;2022-10-28T12:43:32;26.20;67.90
19847;DHT22;10084;50.518;8.588;2022-10-28T12:45:59;26.30;67.80
19847;DHT22;10084;50.518;8.588;2022-10-28T12:48:37;26.60;67.70
19847;DHT22;10084;50.518;8.588;2022-10-28T12:51:17;26.90;66.90
19847;DHT22;10084;50.518;8.588;2022-10-28T12:54:02;27.10;66.10
19847;DHT22;10084;50.518;8.588;2022-10-28T12:56:35;27.20;65.20
19847;DHT22;10084;50.518;8.588;2022-10-28T12:59:13;27.10;65.00
19847;DHT22;10084;50.518;8.588;2022-10-28T13:01:44;27.00;64.70
19847;DHT22;10084;50.518;8.588;2022-10-28T13:04:11;26.80;64.40
19847;DHT22;10084;50.518;8.588;2022-10-28T13:12:50;25.80;65.70
19847;DHT22;10084;50.518;8.588;2022-10-28T13:26:30;24.00;68.30
19847;DHT22;10084;50.518;8.588;2022-10-28T13:28:59;23.80;68.60
19847;DHT22;10084;50.518;8.588;2022-10-28T13:31:44;23.70;68.70
19847;DHT22;10084;50.518;8.588;2022-10-28T13:34:16;23.50;68.70
19847;DHT22;10084;50.518;8.588;2022-10-28T13:36:50;23.40;68.80
19847;DHT22;10084;50.518;8.588;2022-10-28T13:39:38;23.30;69.10
19847;DHT22;10084;50.518;8.588;2022-10-28T13:44:58;23.30;69.30
19847;DHT22;10084;50.518;8.588;2022-10-28T13:47:33;23.30;69.30
19847;DHT22;10084;50.518;8.588;2022-10-28T13:52:38;23.30;69.30
19847;DHT22;10084;50.518;8.588;2022-10-28T13:55:26;23.30;69.20
19847;DHT22;10084;50.518;8.588;2022-10-28T13:58:13;23.30;69.30
19847;DHT22;10084;50.518;8.588;2022-10-28T14:00:43;23.30;69.20
19847;DHT22;10084;50.518;8.588;2022-10-28T14:03:18;23.20;69.30
19847;DHT22;10084;50.518;8.588;2022-10-28T14:08:36;23.10;69.40
19847;DHT22;10084;50.518;8.588;2022-10-28T14:11:10;23.00;69.40
19847;DHT22;10084;50.518;8.588;2022-10-28T14:13:47;22.90;69.40
19847;DHT22;10084;50.518;8.588;2022-10-28T14:16:20;22.90;69.40
19847;DHT22;10084;50.518;8.588;2022-10-28T14:18:56;22.70;69.40
19847;DHT22;10084;50.518;8.588;2022-10-28T14:21:23;22.60;69.50
19847;DHT22;10084;50.518;8.588;2022-10-28T14:24:06;22.50;69.50
19847;DHT22;10084;50.518;8.588;2022-10-28T14:29:31;22.20;69.70
19847;DHT22;10084;50.518;8.588;2022-10-28T14:35:20;22.10;70.00
19847;DHT22;10084;50.518;8.588;2022-10-28T14:38:17;22.10;70.20
19847;DHT22;10084;50.518;8.588;2022-10-28T14:44:09;22.10;70.40
19847;DHT22;10084;50.518;8.588;2022-10-28T14:49:41;22.20;70.30
19847;DHT22;10084;50.518;8.588;2022-10-28T14:52:15;22.20;70.20
19847;DHT22;10084;50.518;8.588;2022-10-28T14:54:50;22.20;70.20
19847;DHT22;10084;50.518;8.588;2022-10-28T14:57:18;22.10;70.20
19847;DHT22;10084;50.518;8.588;2022-10-28T14:59:48;22.10;70.90
19847;DHT22;10084;50.518;8.588;2022-10-28T15:02:19;22.10;70.30
19847;DHT22;10084;50.518;8.588;2022-10-28T15:04:56;22.00;70.30
19847;DHT22;10084;50.518;8.588;2022-10-28T15:07:23;21.90;70.30
19847;DHT22;10084;50.518;8.588;2022-10-28T15:09:49;21.80;70.30
19847;DHT22;10084;50.518;8.588;2022-10-28T15:12:18;21.70;70.30
19847;DHT22;10084;50.518;8.588;2022-10-28T15:14:55;21.60;70.50
19847;DHT22;10084;50.518;8.588;2022-10-28T15:17:27;21.60;70.60
19847;DHT22;10084;50.518;8.588;2022-10-28T15:19:57;21.50;70.70
19847;DHT22;10084;50.518;8.588;2022-10-28T15:22:27;21.40;70.70
19847;DHT22;10084;50.518;8.588;2022-10-28T15:25:00;21.40;70.80
19847;DHT22;10084;50.518;8.588;2022-10-28T15:27:28;21.40;70.90
19847;DHT22;10084;50.518;8.588;2022-10-28T15:29:54;21.30;70.90
19847;DHT22;10084;50.518;8.588;2022-10-28T15:34:47;21.20;71.00
19847;DHT22;10084;50.518;8.588;2022-10-28T15:37:21;21.20;71.00
19847;DHT22;10084;50.518;8.588;2022-10-28T15:39:49;21.10;71.10
19847;DHT22;10084;50.518;8.588;2022-10-28T15:42:30;21.10;71.10
19847;DHT22;10084;50.518;8.588;2022-10-28T15:45:00;21.00;71.20
19847;DHT22;10084;50.518;8.588;2022-10-28T15:47:34;20.90;71.30
19847;DHT22;10084;50.518;8.588;2022-10-28T15:50:23;20.90;71.30
19847;DHT22;10084;50.518;8.588;2022-10-28T15:52:51;20.80;71.30
19847;DHT22;10084;50.518;8.588;2022-10-28T15:57:52;20.70;71.30
19847;DHT22;10084;50.518;8.588;2022-10-28T16:00:26;20.60;71.40
19847;DHT22;10084;50.518;8.588;2022-10-28T16:03:01;20.60;71.50
19847;DHT22;10084;50.518;8.588;2022-10-28T16:07:59;20.50;71.60
19847;DHT22;10084;50.518;8.588;2022-10-28T16:10:27;20.40;71.60
19847;DHT22;10084;50.518;8.588;2022-10-28T16:12:55;20.30;71.70
19847;DHT22;10084;50.518;8.588;2022-10-28T16:15:21;20.30;71.80
19847;DHT22;10084;50.518;8.588;2022-10-28T16:17:47;20.20;71.80
19847;DHT22;10084;50.518;8.588;2022-10-28T16:20:18;20.10;71.90
19847;DHT22;10084;50.518;8.588;2022-10-28T16:22:45;20.10;72.00
19847;DHT22;10084;50.518;8.588;2022-10-28T16:25:12;20.00;72.00
19847;DHT22;10084;50.518;8.588;2022-10-28T16:27:38;20.00;72.10
19847;DHT22;10084;50.518;8.588;2022-10-28T16:30:04;19.90;72.10
19847;DHT22;10084;50.518;8.588;2022-10-28T16:32:37;19.80;72.20
19847;DHT22;10084;50.518;8.588;2022-10-28T16:35:25;19.80;72.20
19847;DHT22;10084;50.518;8.588;2022-10-28T16:37:51;19.70;72.20
19847;DHT22;10084;50.518;8.588;2022-10-28T16:40:17;19.60;72.30
19847;DHT22;10084;50.518;8.588;2022-10-28T16:42:43;19.50;72.40
19847;DHT22;10084;50.518;8.588;2022-10-28T16:45:15;19.40;72.50
19847;DHT22;10084;50.518;8.588;2022-10-28T16:47:41;19.40;72.70
19847;DHT22;10084;50.518;8.588;2022-10-28T16:50:07;19.30;72.80
19847;DHT22;10084;50.518;8.588;2022-10-28T16:52:33;19.20;72.80
19847;DHT22;10084;50.518;8.588;2022-10-28T16:54:59;19.20;72.90
19847;DHT22;10084;50.518;8.588;2022-10-28T16:57:25;19.10;73.10
19847;DHT22;10084;50.518;8.588;2022-10-28T16:59:51;19.00;73.10
19847;DHT22;10084;50.518;8.588;2022-10-28T17:02:31;19.00;73.20
19847;DHT22;10084;50.518;8.588;2022-10-28T17:04:58;18.90;73.30
19847;DHT22;10084;50.518;8.588;2022-10-28T17:07:25;18.80;73.30
19847;DHT22;10084;50.518;8.588;2022-10-28T17:09:50;18.80;73.50
19847;DHT22;10084;50.518;8.588;2022-10-28T17:12:18;18.70;73.50
19847;DHT22;10084;50.518;8.588;2022-10-28T17:14:44;18.60;73.60
19847;DHT22;10084;50.518;8.588;2022-10-28T17:17:10;18.60;73.70
19847;DHT22;10084;50.518;8.588;2022-10-28T17:19:37;18.50;73.80
19847;DHT22;10084;50.518;8.588;2022-10-28T17:22:04;18.40;73.90
19847;DHT22;10084;50.518;8.588;2022-10-28T17:24:30;18.30;73.90
19847;DHT22;10084;50.518;8.588;2022-10-28T17:26:56;18.30;74.10
19847;DHT22;10084;50.518;8.588;2022-10-28T17:29:21;18.20;74.20
19847;DHT22;10084;50.518;8.588;2022-10-28T17:31:47;18.20;74.30
19847;DHT22;10084;50.518;8.588;2022-10-28T17:34:13;18.10;74.50
19847;DHT22;10084;50.518;8.588;2022-10-28T17:36:39;18.10;74.40
19847;DHT22;10084;50.518;8.588;2022-10-28T17:39:04;18.10;74.30
19847;DHT22;10084;50.518;8.588;2022-10-28T17:41:30;18.00;74.30
19847;DHT22;10084;50.518;8.588;2022-10-28T17:43:55;18.00;74.40
19847;DHT22;10084;50.518;8.588;2022-10-28T17:46:21;17.90;74.50
19847;DHT22;10084;50.518;8.588;2022-10-28T17:48:47;17.80;74.50
19847;DHT22;10084;50.518;8.588;2022-10-28T17:51:14;17.80;74.70
19847;DHT22;10084;50.518;8.588;2022-10-28T17:53:42;17.80;74.80
19847;DHT22;10084;50.518;8.588;2022-10-28T17:56:08;17.70;74.80
19847;DHT22;10084;50.518;8.588;2022-10-28T17:58:33;17.70;75.00
19847;DHT22;10084;50.518;8.588;2022-10-28T18:01:03;17.70;75.10